Time;durP1;ratioP1;P1;durP2;ratioP2;P2;SDS_P1;SDS_P2;PMS_P1;PMS_P2;Temp;Humidity;BMP_temperature;BMP_pressure;BME280_temperature;BME280_humidity;BME280_pressure;Samples;Min_cycle;Max_cycle;Signal;HPM_P1;HPM_P2
2021/12/04 15:34:53;;;;;;;17.15;10.73;;;5.00;99.90;;;;;;5107597;27;20567;-68
2021/12/04 15:37:28;;;;;;;13.13;9.27;;;5.00;99.90;;;;;;5107913;28;20307;-68
2021/12/04 15:39:55;;;;;;;10.80;9.00;;;5.00;99.90;;;;;;5106952;28;20223;-68
2021/12/04 15:42:29;;;;;;;12.82;9.30;;;5.10;99.90;;;;;;5093708;28;20216;-68
2021/12/04 15:45:10;;;;;;;13.90;9.68;;;5.10;99.90;;;;;;5106629;28;20920;-68
2021/12/04 15:47:40;;;;;;;11.38;9.77;;;5.10;99.90;;;;;;5101981;28;20680;-68
2021/12/04 15:53:09;;;;;;;16.52;11.10;;;5.10;99.90;;;;;;5088394;28;20669;-68
2021/12/04 15:55:38;;;;;;;17.25;11.38;;;5.10;99.90;;;;;;5087059;28;20208;-68
2021/12/04 15:58:08;;;;;;;12.40;9.95;;;5.10;99.90;;;;;;5099049;28;20732;-68
2021/12/04 16:00:39;;;;;;;12.73;10.35;;;5.10;99.90;;;;;;5105733;28;20573;-68
2021/12/04 16:03:10;;;;;;;12.73;11.43;;;5.10;99.90;;;;;;5096840;28;20213;-67
2021/12/04 16:05:41;;;;;;;18.23;10.65;;;5.10;99.90;;;;;;5088048;28;20292;-67
2021/12/04 16:08:12;;;;;;;14.00;10.63;;;5.10;99.90;;;;;;5094977;28;20216;-67
2021/12/04 16:10:41;;;;;;;12.05;9.75;;;5.10;99.90;;;;;;5087015;28;20649;-68
2021/12/04 16:13:09;;;;;;;13.70;11.48;;;5.10;99.90;;;;;;5098389;28;20220;-68
2021/12/04 16:15:36;;;;;;;14.95;10.50;;;5.10;99.90;;;;;;5102559;28;20261;-68
2021/12/04 16:18:05;;;;;;;8.63;5.43;;;5.10;99.90;;;;;;5098034;28;20348;-67
2021/12/04 16:20:32;;;;;;;13.35;11.10;;;5.10;99.90;;;;;;5093855;28;20201;-68
2021/12/04 16:23:02;;;;;;;12.25;9.20;;;5.10;99.90;;;;;;5100487;28;20219;-69
2021/12/04 16:25:35;;;;;;;14.45;10.48;;;5.10;99.90;;;;;;5095199;28;20288;-68
2021/12/04 16:28:08;;;;;;;11.95;9.90;;;5.10;99.90;;;;;;5093660;28;20291;-68
2021/12/04 16:30:50;;;;;;;11.70;9.98;;;5.10;99.90;;;;;;5096665;28;20223;-69
2021/12/04 16:33:32;;;;;;;12.93;9.57;;;5.10;99.90;;;;;;5090370;28;20226;-66
2021/12/04 16:36:05;;;;;;;12.27;9.05;;;5.10;99.90;;;;;;5096183;28;20574;-67
2021/12/04 16:38:34;;;;;;;9.10;6.88;;;5.10;99.90;;;;;;5091544;28;20701;-67
2021/12/04 16:41:05;;;;;;;11.10;7.75;;;5.10;99.90;;;;;;5098449;28;20224;-68
2021/12/04 16:43:35;;;;;;;9.65;8.75;;;5.00;99.90;;;;;;5099415;28;20245;-68
2021/12/04 16:46:10;;;;;;;7.45;6.50;;;5.10;99.90;;;;;;5087784;28;20211;-67
2021/12/04 16:48:39;;;;;;;6.60;6.00;;;5.00;99.90;;;;;;5078870;28;20641;-67
2021/12/04 16:57:08;;;;;;;8.85;7.32;;;5.00;99.90;;;;;;5085616;28;20215;-68
2021/12/04 16:59:36;;;;;;;5.35;4.82;;;5.00;99.90;;;;;;5083488;28;20638;-68
2021/12/04 17:02:06;;;;;;;10.05;8.82;;;4.90;99.90;;;;;;5078078;28;20701;-68
2021/12/04 17:04:34;;;;;;;6.78;4.55;;;4.90;99.90;;;;;;5087135;28;20220;-66
2021/12/04 17:07:02;;;;;;;8.77;7.38;;;4.90;99.90;;;;;;5091237;28;20304;-68
2021/12/04 17:09:31;;;;;;;6.82;5.93;;;4.90;99.90;;;;;;5088603;28;20258;-67
2021/12/04 17:11:58;;;;;;;7.38;5.95;;;4.90;99.90;;;;;;5081213;28;20282;-68
2021/12/04 17:14:29;;;;;;;7.82;6.85;;;4.90;99.90;;;;;;5074581;28;20227;-67
2021/12/04 17:16:58;;;;;;;5.30;4.90;;;4.90;99.90;;;;;;5079966;28;20784;-67
2021/12/04 17:19:25;;;;;;;7.38;5.90;;;4.80;99.90;;;;;;5087078;28;20200;-67
2021/12/04 17:21:53;;;;;;;6.70;6.10;;;4.80;99.90;;;;;;5078372;28;20657;-67
2021/12/04 17:24:27;;;;;;;5.90;5.38;;;4.90;99.90;;;;;;5091234;28;20749;-67
2021/12/04 17:26:56;;;;;;;8.73;7.82;;;4.80;99.90;;;;;;5085412;28;20701;-68
2021/12/04 17:29:23;;;;;;;6.38;5.07;;;4.80;99.90;;;;;;5071539;28;20205;-68
2021/12/04 17:31:52;;;;;;;8.27;5.93;;;4.80;99.90;;;;;;5090796;28;20232;-68
2021/12/04 17:34:18;;;;;;;8.27;5.75;;;4.80;99.90;;;;;;5079061;28;20204;-69
2021/12/04 17:36:45;;;;;;;6.03;4.88;;;4.80;99.90;;;;;;5091673;28;20277;-68
2021/12/04 17:39:14;;;;;;;5.88;5.38;;;4.70;99.90;;;;;;5093631;28;20265;-68
2021/12/04 17:41:42;;;;;;;6.38;5.28;;;4.70;99.90;;;;;;5075565;28;20782;-68
2021/12/04 17:44:14;;;;;;;7.70;6.78;;;4.70;99.90;;;;;;5082049;28;20228;-68
2021/12/04 17:46:42;;;;;;;7.68;6.63;;;4.60;99.90;;;;;;5085163;28;20295;-68
2021/12/04 17:49:09;;;;;;;5.28;4.47;;;4.60;99.90;;;;;;5088779;28;20212;-69
2021/12/04 17:51:36;;;;;;;5.88;5.22;;;4.60;99.90;;;;;;5076834;28;20220;-68
2021/12/04 17:54:07;;;;;;;7.88;6.72;;;4.60;99.90;;;;;;5082797;28;20205;-68
2021/12/04 17:56:34;;;;;;;7.97;6.80;;;4.60;99.90;;;;;;5074501;28;20213;-67
2021/12/04 17:59:01;;;;;;;11.00;7.97;;;4.60;99.90;;;;;;5077874;28;20209;-68
2021/12/04 18:01:33;;;;;;;6.68;5.97;;;4.60;99.90;;;;;;5074070;28;20291;-68
2021/12/04 18:04:00;;;;;;;6.28;4.93;;;4.50;99.90;;;;;;5081102;28;20216;-70
2021/12/04 18:06:28;;;;;;;8.80;6.18;;;4.50;99.90;;;;;;5083746;28;20202;-68
2021/12/04 18:08:57;;;;;;;11.88;8.40;;;4.50;99.90;;;;;;5080606;28;20214;-68
2021/12/04 18:11:27;;;;;;;5.35;4.85;;;4.50;99.90;;;;;;5087541;28;20221;-69
2021/12/04 18:13:57;;;;;;;7.97;7.18;;;4.40;99.90;;;;;;5078381;28;20207;-68
2021/12/04 18:16:28;;;;;;;6.60;5.68;;;4.40;99.90;;;;;;5089120;28;20250;-68
2021/12/04 18:18:57;;;;;;;11.27;8.48;;;4.40;99.90;;;;;;5077171;28;20280;-68
2021/12/04 18:21:24;;;;;;;10.13;9.20;;;4.30;99.90;;;;;;5080757;28;20220;-68
2021/12/04 18:23:51;;;;;;;7.35;6.25;;;4.30;99.90;;;;;;5074057;28;20221;-68
2021/12/04 18:26:18;;;;;;;14.93;7.72;;;4.30;99.90;;;;;;5082739;28;20239;-67
2021/12/04 18:28:45;;;;;;;9.40;8.35;;;4.30;99.90;;;;;;5086265;28;20288;-67
2021/12/04 18:31:12;;;;;;;11.88;6.68;;;4.30;99.90;;;;;;5070247;28;20229;-68
2021/12/04 18:33:41;;;;;;;10.80;5.05;;;4.30;99.90;;;;;;5081727;28;20236;-67
2021/12/04 18:36:10;;;;;;;7.35;6.65;;;4.30;99.90;;;;;;5073238;28;20722;-68
2021/12/04 18:38:41;;;;;;;7.72;6.10;;;4.20;99.90;;;;;;5089121;28;20590;-68
2021/12/04 18:41:08;;;;;;;8.35;7.38;;;4.20;99.90;;;;;;5088728;28;20677;-69
2021/12/04 18:43:40;;;;;;;11.93;8.32;;;4.30;99.90;;;;;;5078561;28;20205;-69
2021/12/04 18:46:07;;;;;;;8.32;6.90;;;4.30;99.90;;;;;;5073962;28;20213;-67
2021/12/04 18:48:34;;;;;;;13.50;9.38;;;4.30;99.90;;;;;;5089806;28;20201;-67
2021/12/04 18:51:00;;;;;;;8.18;5.68;;;4.30;99.90;;;;;;5074318;28;20217;-67
2021/12/04 18:53:29;;;;;;;10.65;8.10;;;4.40;99.90;;;;;;5078088;28;20218;-67
2021/12/04 18:55:55;;;;;;;8.48;7.65;;;4.40;99.90;;;;;;5079024;28;20653;-67
2021/12/04 18:58:22;;;;;;;10.70;9.25;;;4.40;99.90;;;;;;5068740;28;20217;-67
2021/12/04 19:00:49;;;;;;;11.85;9.30;;;4.40;99.90;;;;;;5086213;28;20232;-68
2021/12/04 19:03:16;;;;;;;6.78;6.15;;;4.40;99.90;;;;;;5076677;28;20502;-69
2021/12/04 19:05:46;;;;;;;13.68;9.25;;;4.40;99.90;;;;;;5080285;28;20229;-68
2021/12/04 19:08:13;;;;;;;7.68;6.95;;;4.40;99.90;;;;;;5083398;28;20197;-68
2021/12/04 19:10:42;;;;;;;10.18;8.90;;;4.40;99.90;;;;;;5087546;28;20230;-68
2021/12/04 19:13:09;;;;;;;11.18;9.07;;;4.30;99.90;;;;;;5068193;28;20197;-68
2021/12/04 19:15:37;;;;;;;10.65;8.57;;;4.30;99.90;;;;;;5067793;28;20223;-68
2021/12/04 19:18:06;;;;;;;14.20;11.07;;;4.30;99.90;;;;;;5084512;28;20675;-68
2021/12/04 19:20:34;;;;;;;8.05;6.53;;;4.30;99.90;;;;;;5070839;28;20292;-68
2021/12/04 19:23:02;;;;;;;15.68;11.00;;;4.20;99.90;;;;;;5066973;28;20208;-68
2021/12/04 19:25:29;;;;;;;13.80;8.45;;;4.20;99.90;;;;;;5077771;28;20224;-69
2021/12/04 19:27:59;;;;;;;17.25;12.07;;;4.20;99.90;;;;;;5065860;28;20212;-68
2021/12/04 19:30:32;;;;;;;12.95;10.50;;;4.20;99.90;;;;;;5073139;28;20557;-67
2021/12/04 19:33:09;;;;;;;15.98;10.27;;;4.10;99.90;;;;;;5075754;28;20212;-68
2021/12/04 19:52:19;;;;;;;11.57;8.10;;;3.90;99.90;;;;;;5066199;28;20240;-69
2021/12/04 19:54:54;;;;;;;15.98;10.77;;;3.90;99.90;;;;;;5085934;28;20204;-67
2021/12/04 19:57:28;;;;;;;13.07;8.95;;;3.80;99.90;;;;;;5084828;28;20301;-67
2021/12/04 19:59:56;;;;;;;15.25;9.45;;;3.80;99.90;;;;;;5083170;28;20326;-67
2021/12/04 20:02:44;;;;;;;13.77;10.65;;;3.80;99.90;;;;;;5071429;28;20296;-67
2021/12/04 20:05:25;;;;;;;16.60;10.18;;;3.80;99.90;;;;;;5067051;28;20233;-67
2021/12/04 20:08:07;;;;;;;12.98;10.70;;;3.80;99.90;;;;;;5068981;28;20829;-67
2021/12/04 20:13:34;;;;;;;11.18;9.30;;;3.80;99.90;;;;;;5084385;28;20326;-68
2021/12/04 20:16:05;;;;;;;12.48;9.25;;;3.80;99.90;;;;;;5086104;28;20348;-68
2021/12/04 20:18:32;;;;;;;15.20;9.88;;;3.80;99.90;;;;;;5079855;28;20680;-68
2021/12/04 20:21:03;;;;;;;12.13;10.00;;;3.80;99.90;;;;;;5068426;28;20232;-68
2021/12/04 20:23:31;;;;;;;13.75;9.95;;;3.80;99.90;;;;;;5076489;28;20212;-68
2021/12/04 20:26:02;;;;;;;12.38;10.02;;;3.80;99.90;;;;;;5090218;28;20234;-68
2021/12/04 20:28:50;;;;;;;11.73;9.50;;;3.80;99.90;;;;;;5080268;28;20208;-68
2021/12/04 20:31:25;;;;;;;12.95;9.45;;;3.80;99.90;;;;;;5075801;28;20316;-68
2021/12/04 20:33:57;;;;;;;16.27;11.15;;;3.70;99.90;;;;;;5070481;28;20560;-68
2021/12/04 20:39:35;;;;;;;18.80;12.20;;;3.70;99.90;;;;;;5088736;28;20295;-68
2021/12/04 21:02:28;;;;;;;12.77;9.82;;;3.50;99.90;;;;;;5071129;28;20251;-68
2021/12/04 21:07:04;;;;;;;19.80;12.00;;;3.20;99.90;;;;;;5085387;28;20786;-68
2021/12/04 21:12:31;;;;;;;15.82;11.60;;;3.20;99.90;;;;;;5070767;28;20278;-68
2021/12/04 21:43:24;;;;;;;22.55;12.98;;;2.80;99.90;;;;;;5072679;28;20282;-69
2021/12/04 21:51:13;;;;;;;20.35;10.85;;;2.70;99.90;;;;;;5078505;28;20228;-69
2021/12/04 21:53:41;;;;;;;20.95;12.27;;;2.70;99.90;;;;;;5079303;28;20606;-68
2021/12/04 21:56:19;;;;;;;20.48;12.57;;;2.60;99.90;;;;;;5087714;28;20203;-69
